Hudson, ME (04449)

10:10 PM EST on November 25, 2014 (GMT -0500)
Libbey Lane | Change Station
CLOSE
Current Station
Personal Weather Station
Location: Glenburn, ME
Elevation: 194 ft
Nearby Weather Stations

Elev 194 ft 44.89 °N, 68.87 °W | Updated 15 minutes ago

Mostly Cloudy
Mostly Cloudy
41.2 °F
Feels Like 41 °F
N
1.1
Wind Variable Wind from West

Today
High -- | Low -- °F
--% Chance of Precip.
Yesterday
High -- | Low -- °F
Precip. -- in
6:46 AM 3:58 PM
Waxing Crescent, 16% visible
Pressure 29.99 in
Visibility 10.0 miles
Clouds Overcast 25000 ft
Windchill 41 °F
Dew Point 32 °F
Humidity 68%
Rainfall 0.00 in
Snow Depth Not available.
UV 0 out of 12
Pollen .10 out of 12
Air Quality Not available.
Flu Activity Not available.
METAR KBGR 260253Z 26008G16KT 10SM OVC250 08/M04 A2998 RMK AO2 SLP154 T00781039 53025

More Conditions Fewer Conditions

Pressure 29.99 in
Visibility 10.0 miles
Clouds Overcast 25000 ft
Windchill 41 °F
Dew Point 32 °F
Humidity 68%
Rainfall 0.00 in
Snow Depth Not available.
UV 0 out of 12
Pollen .10 out of 12
Air Quality Not available.
Flu Activity Not available.
METAR KBGR 260253Z 26008G16KT 10SM OVC250 08/M04 A2998 RMK AO2 SLP154 T00781039 53025

More Conditions Fewer Conditions

10-Day Weather Forecast

Almanac

Astronomy

Nov. 25, 2014 Rise Set
Actual Time
Civil Twilight
Nautical Twilight
Astronomical Twilight
Moon
Length of Visible Light
Length of Day
Tomorrow will be .
, % of the Moon is Illuminated

Today's Extremes

State Highs State Lows

Community

WunderPhotos

Upload Photos

1,773,666 photos uploaded!

WunderBlogs® & News

Nearby

Air Quality

  Air Quality AQ Index Pollutant
Not available.

Snow Depth

Station Depth Elevation

Earthquake Activity

City Distance Mag. Time & Date
Minimum magnitude displayed is 2.5.

Coastal Water Temperatures

Place Temperature

Nearby Weather Stations